Horseneck Beach, Massachusetts
Current Conditions -  °F | °C
As of 9:53 AM on Friday 24 Oct 2014 (Local Time) from KEWB Reporting Station
Overcast Overcast  
Wind Chill: 51°   Ceiling: 1000
Heat Index: 51°   Visibility: 10mi
Dew Point: 49°   Wind: 7mph
Humidity: 92%   Direction: 320°NW
Pressure: 29.68"   Gusts: NA
Location:  41.6022°N, 71.0828°W
Report Text: KEWB 241353Z 32006KT 10SM BKN010 OVC018 11/09 A2968 RMK AO2 SLP051 T01060094
Loading
Personal Weather Stations






























Interactive Weather Map New forecast layout! Learn more

10-Day Weather Forecast

Advertisements
Track Severe Weather on mobile